Time;durP1;ratioP1;P1;durP2;ratioP2;P2;SDS_P1;SDS_P2;PMS_P1;PMS_P2;Temp;Humidity;BMP_temperature;BMP_pressure;BME280_temperature;BME280_humidity;BME280_pressure;Samples;Min_cycle;Max_cycle;Signal;HPM_P1;HPM_P2
2021/04/23 00:01:14;;;;;;;12.85;5.63;;;3.50;99.90;;;4.54;76.79;101710.78;4814095;29;20163;-85
2021/04/23 00:04:00;;;;;;;16.77;7.45;;;3.50;99.90;;;4.61;76.93;101707.69;4796763;29;20094;-84
2021/04/23 00:06:34;;;;;;;15.73;6.57;;;3.60;99.90;;;4.69;76.35;101713.41;4812679;29;20404;-85
2021/04/23 00:09:21;;;;;;;17.70;6.05;;;3.60;99.90;;;4.78;75.70;101719.13;4813289;29;20054;-85
2021/04/23 00:11:58;;;;;;;11.73;5.70;;;3.70;99.90;;;4.77;75.26;101709.16;4796346;29;20121;-84
2021/04/23 00:14:41;;;;;;;15.30;6.07;;;3.70;99.90;;;4.68;75.91;101699.88;4796544;29;20073;-85
2021/04/23 00:17:10;;;;;;;14.27;6.03;;;3.70;99.90;;;4.63;75.70;101699.91;4797419;29;20059;-86
2021/04/23 00:19:37;;;;;;;13.63;5.97;;;3.60;99.90;;;4.65;75.51;101700.44;4797057;29;20098;-86
2021/04/23 00:22:07;;;;;;;17.58;6.05;;;3.60;99.90;;;4.60;75.78;101703.25;4799482;29;20066;-87
2021/04/23 00:24:34;;;;;;;12.23;5.60;;;3.70;99.90;;;4.66;75.46;101702.09;4799148;29;20045;-85
2021/04/23 00:27:04;;;;;;;13.60;5.25;;;3.60;99.90;;;4.63;74.84;101694.38;4811683;29;20051;-83
2021/04/23 00:29:30;;;;;;;11.70;5.35;;;3.60;99.90;;;4.55;75.38;101695.03;4803423;29;20050;-85
2021/04/23 00:34:44;;;;;;;13.40;5.90;;;3.50;99.90;;;4.43;75.56;101695.41;4812268;29;20266;-86
2021/04/23 00:37:10;;;;;;;18.40;5.07;;;3.50;99.90;;;4.35;75.66;101703.50;4794686;29;20039;-82
2021/04/23 00:39:36;;;;;;;16.23;7.07;;;3.40;99.90;;;4.25;76.20;101702.50;4794702;29;20183;-85
2021/04/23 00:42:06;;;;;;;14.93;5.43;;;3.30;99.90;;;4.20;76.81;101701.72;4793468;29;20027;-84
2021/04/23 00:44:34;;;;;;;13.95;5.78;;;3.20;99.90;;;4.17;76.79;101697.59;4809234;29;20072;-82
2021/04/23 00:47:01;;;;;;;11.00;5.22;;;3.20;99.90;;;4.14;77.01;101702.91;4794108;29;20065;-83
2021/04/23 00:49:27;;;;;;;12.30;5.00;;;3.20;99.90;;;4.17;77.16;101694.00;4793265;29;20403;-85
2021/04/23 00:51:59;;;;;;;14.85;6.10;;;3.20;99.90;;;4.17;77.06;101707.84;4793720;29;20031;-85
2021/04/23 00:54:29;;;;;;;17.48;6.10;;;3.10;99.90;;;4.10;76.81;101710.94;4792244;29;20114;-85
2021/04/23 00:56:57;;;;;;;10.05;5.13;;;3.10;99.90;;;4.05;76.99;101699.91;4794023;29;20051;-85
2021/04/23 00:59:25;;;;;;;10.25;5.22;;;3.10;99.90;;;4.00;77.25;101708.25;4808707;29;20043;-85
2021/04/23 01:02:10;;;;;;;15.50;6.80;;;3.00;99.90;;;3.90;77.72;101711.09;4792718;29;20564;-83
2021/04/23 01:04:37;;;;;;;24.13;7.13;;;2.90;99.90;;;3.89;77.89;101717.72;4791993;29;20134;-84
2021/04/23 01:07:05;;;;;;;15.80;6.68;;;2.90;99.90;;;3.78;78.42;101707.88;4808238;29;20099;-84
2021/04/23 01:09:32;;;;;;;13.32;6.07;;;2.90;99.90;;;3.71;78.74;101707.34;4791102;29;20088;-83
2021/04/23 01:12:04;;;;;;;16.58;6.30;;;2.80;99.90;;;3.63;78.62;101708.78;4792386;29;20047;-87
2021/04/23 01:14:31;;;;;;;19.13;6.63;;;2.70;99.90;;;3.54;79.19;101704.97;4792307;29;20035;-84
2021/04/23 01:16:58;;;;;;;16.58;6.30;;;2.60;99.90;;;3.53;79.52;101714.38;4791715;29;20506;-86
2021/04/23 01:19:27;;;;;;;14.07;6.25;;;2.50;99.90;;;3.49;80.01;101710.53;4806363;29;20460;-88
2021/04/23 01:21:54;;;;;;;16.98;6.35;;;2.50;99.90;;;3.38;79.76;101714.47;4791929;29;20110;-86
2021/04/23 01:24:21;;;;;;;15.68;5.97;;;2.40;99.90;;;3.31;80.14;101715.91;4791509;29;20035;-85
2021/04/23 01:26:53;;;;;;;15.77;5.60;;;2.40;99.90;;;3.26;80.30;101713.97;4806948;29;20459;-86
2021/04/23 01:29:24;;;;;;;13.73;5.85;;;2.30;99.90;;;3.13;80.62;101709.91;4792140;29;20073;-88
2021/04/23 01:31:58;;;;;;;19.92;6.43;;;2.20;99.90;;;3.04;80.70;101708.00;4792816;29;20038;-87
2021/04/23 01:34:37;;;;;;;14.40;6.53;;;2.10;99.90;;;2.96;81.13;101714.94;4791538;29;20043;-85
2021/04/23 01:37:06;;;;;;;13.23;6.57;;;2.10;99.90;;;2.88;81.38;101710.00;4791686;29;20130;-88
2021/04/23 01:39:40;;;;;;;12.48;6.18;;;2.00;99.90;;;2.83;81.70;101718.28;4791887;29;20126;-84
2021/04/23 01:42:11;;;;;;;10.35;5.88;;;1.90;99.90;;;2.74;82.15;101714.44;4808949;29;20088;-82
2021/04/23 01:44:39;;;;;;;13.77;6.28;;;1.80;99.90;;;2.59;82.25;101706.22;4810531;29;20059;-82
2021/04/23 01:47:09;;;;;;;15.93;6.93;;;1.70;99.90;;;2.54;82.83;101715.31;4812015;29;20050;-84
2021/04/23 01:49:37;;;;;;;15.25;6.75;;;1.60;99.90;;;2.48;82.88;101713.69;4811471;29;20043;-84
2021/04/23 01:52:15;;;;;;;20.85;6.28;;;1.60;99.90;;;2.45;83.48;101722.50;4811464;29;20038;-80
2021/04/23 01:54:42;;;;;;;15.10;6.20;;;1.50;99.90;;;2.39;83.74;101728.31;4812163;29;20054;-83
2021/04/23 01:57:09;;;;;;;13.05;6.85;;;1.50;99.90;;;2.36;83.58;101723.34;4806324;29;20035;-87
2021/04/23 01:59:39;;;;;;;13.65;6.60;;;1.40;99.90;;;2.32;84.11;101720.31;4795087;29;20039;-88
2021/04/23 02:02:06;;;;;;;15.02;6.65;;;1.40;99.90;;;2.26;83.92;101717.84;4794896;29;20035;-88
2021/04/23 02:04:33;;;;;;;14.88;6.53;;;1.40;99.90;;;2.20;84.27;101719.78;4794165;29;20043;-86
2021/04/23 02:07:06;;;;;;;15.93;6.50;;;1.30;99.90;;;2.18;84.75;101721.16;4795480;29;20088;-88
2021/04/23 02:09:35;;;;;;;15.98;7.07;;;1.30;99.90;;;2.13;85.21;101714.56;4795554;29;20059;-87
2021/04/23 02:12:03;;;;;;;19.63;7.80;;;1.30;99.90;;;2.10;85.01;101726.13;4795041;29;20046;-87
2021/04/23 02:14:29;;;;;;;16.30;7.40;;;1.20;99.90;;;2.03;85.82;101722.81;4795766;29;20065;-87
2021/04/23 02:16:55;;;;;;;18.73;7.63;;;1.20;99.90;;;2.05;86.06;101725.31;4794492;29;20050;-88
2021/04/23 02:19:24;;;;;;;18.23;8.45;;;1.20;99.90;;;2.09;86.39;101734.66;4795535;29;20038;-87
2021/04/23 02:21:51;;;;;;;16.63;7.20;;;1.20;99.90;;;2.13;86.60;101722.81;4811946;29;20527;-87
2021/04/23 02:24:19;;;;;;;16.13;7.32;;;1.20;99.90;;;2.22;86.25;101730.53;4795756;29;20035;-86
2021/04/23 02:26:47;;;;;;;11.30;6.25;;;1.30;99.90;;;2.21;85.90;101731.66;4795895;29;20397;-85
2021/04/23 02:29:18;;;;;;;15.57;6.80;;;1.30;99.90;;;2.13;85.95;101731.09;4795454;29;20095;-86
2021/04/23 02:31:54;;;;;;;17.50;7.53;;;1.30;99.90;;;2.05;85.82;101725.31;4793408;29;20097;-87
2021/04/23 02:34:26;;;;;;;18.67;7.13;;;1.10;99.90;;;2.07;85.74;101739.63;4795586;29;20194;-87
2021/04/23 02:36:53;;;;;;;17.95;6.50;;;1.10;99.90;;;2.01;85.83;101735.22;4795978;29;20403;-89
2021/04/23 02:39:21;;;;;;;15.32;7.50;;;1.10;99.90;;;1.94;85.71;101738.25;4795437;29;20443;-88
2021/04/23 02:41:53;;;;;;;15.27;7.45;;;1.00;99.90;;;1.82;85.65;101734.94;4795304;29;20131;-89
2021/04/23 02:44:21;;;;;;;14.02;6.85;;;1.00;99.90;;;1.76;85.60;101746.22;4799827;29;20047;-87
2021/04/23 02:46:47;;;;;;;16.23;7.25;;;0.90;99.90;;;1.70;86.22;101742.63;4808811;29;20056;-88
2021/04/23 02:49:14;;;;;;;15.73;7.13;;;0.80;99.90;;;1.64;86.27;101754.72;4801382;29;20035;-88
2021/04/23 02:51:46;;;;;;;14.55;6.57;;;0.80;99.90;;;1.60;86.50;101750.88;4794349;29;20080;-86
2021/04/23 02:54:16;;;;;;;18.65;6.88;;;0.70;99.90;;;1.59;86.55;101752.78;4794719;29;20039;-89
2021/04/23 02:56:43;;;;;;;16.90;7.00;;;0.70;99.90;;;1.58;86.76;101759.38;4794147;29;20073;-89
2021/04/23 02:59:12;;;;;;;15.75;6.82;;;0.70;99.90;;;1.60;86.83;101770.16;4809462;29;20500;-88
2021/04/23 03:01:53;;;;;;;21.05;8.02;;;0.70;99.90;;;1.58;87.29;101770.41;4794596;29;20161;-87
2021/04/23 03:04:19;;;;;;;12.65;6.68;;;0.60;99.90;;;1.52;87.17;101766.00;4793847;29;20104;-90
2021/04/23 03:06:47;;;;;;;15.40;6.82;;;0.60;99.90;;;1.55;86.98;101762.69;4795093;29;20035;-90
2021/04/23 03:09:13;;;;;;;17.05;7.13;;;0.60;99.90;;;1.52;87.01;101763.22;4795118;29;20042;-90
2021/04/23 03:11:42;;;;;;;15.63;7.65;;;0.60;99.90;;;1.48;87.28;101761.28;4808340;29;20046;-88
2021/04/23 03:14:09;;;;;;;15.70;7.18;;;0.60;99.90;;;1.44;87.80;101761.03;4792639;29;20071;-85
2021/04/23 03:16:41;;;;;;;18.60;7.45;;;0.60;99.90;;;1.43;88.15;101761.28;4793704;29;20126;-87
2021/04/23 03:19:18;;;;;;;16.50;7.28;;;0.60;99.90;;;1.47;88.33;101777.00;4799747;29;20046;-85
2021/04/23 03:21:45;;;;;;;14.35;6.88;;;0.60;99.90;;;1.53;88.17;101775.06;4798811;29;20031;-87
2021/04/23 03:24:14;;;;;;;18.48;7.28;;;0.60;99.90;;;1.52;88.07;101778.91;4799690;29;20039;-88
2021/04/23 03:26:43;;;;;;;15.20;6.50;;;0.60;99.90;;;1.40;87.82;101767.31;4799752;29;20399;-84
2021/04/23 03:29:14;;;;;;;16.02;7.82;;;0.50;99.90;;;1.37;87.95;101776.13;4815542;29;20086;-87
2021/04/23 03:31:41;;;;;;;17.02;7.28;;;0.50;99.90;;;1.41;88.33;101785.50;4799439;29;20068;-87
2021/04/23 03:34:10;;;;;;;16.67;7.72;;;0.50;99.90;;;1.45;88.41;101778.34;4798434;29;20051;-88
2021/04/23 03:36:36;;;;;;;21.08;7.90;;;0.50;99.90;;;1.48;88.79;101775.88;4798349;29;20138;-91
2021/04/23 03:39:08;;;;;;;16.73;7.63;;;0.50;99.90;;;1.65;88.29;101783.09;4799966;29;20042;-89
2021/04/23 03:41:35;;;;;;;14.23;8.25;;;0.60;99.90;;;1.74;87.98;101787.78;4800226;29;20061;-88
2021/04/23 03:44:03;;;;;;;17.45;8.23;;;0.70;99.90;;;1.74;87.68;101776.78;4798671;29;20062;-87
2021/04/23 03:46:30;;;;;;;19.40;7.95;;;0.70;99.90;;;1.80;87.86;101783.16;4795262;29;20113;-85
2021/04/23 03:48:58;;;;;;;18.48;7.68;;;0.70;99.90;;;1.84;88.05;101789.75;4794870;29;20097;-88
2021/04/23 03:51:25;;;;;;;17.95;7.70;;;0.80;99.90;;;1.88;87.63;101790.88;4795192;29;20082;-87
2021/04/23 03:53:52;;;;;;;19.63;8.30;;;0.80;99.90;;;1.88;87.49;101793.63;4796218;29;20039;-85
2021/04/23 03:56:19;;;;;;;24.17;7.95;;;0.80;99.90;;;1.91;87.62;101799.41;4796439;29;20050;-87
2021/04/23 03:58:50;;;;;;;20.58;8.05;;;0.80;99.90;;;1.88;87.34;101797.19;4797308;29;20038;-86
2021/04/23 04:01:23;;;;;;;18.98;8.25;;;0.80;99.90;;;1.88;87.24;101799.13;4796052;29;20146;-87
2021/04/23 04:03:55;;;;;;;19.13;7.70;;;0.70;99.90;;;1.85;87.35;101796.91;4795810;29;20081;-86
2021/04/23 04:06:21;;;;;;;18.85;8.05;;;0.70;99.90;;;1.84;87.35;101801.59;4794642;29;20039;-88
2021/04/23 04:08:48;;;;;;;18.63;8.40;;;0.70;99.90;;;1.81;87.50;101810.41;4803834;29;20031;-82
2021/04/23 04:11:17;;;;;;;17.58;7.93;;;0.70;99.90;;;1.78;87.60;101805.44;4828629;29;20046;-83
2021/04/23 04:13:43;;;;;;;22.00;8.38;;;0.80;99.90;;;1.75;87.71;101802.41;4828464;29;20046;-82
2021/04/23 04:16:09;;;;;;;19.85;7.85;;;0.70;99.90;;;1.75;87.27;101807.91;4828599;29;20096;-85
2021/04/23 04:18:34;;;;;;;14.10;8.10;;;0.70;99.90;;;1.77;87.58;101805.69;4803744;29;20042;-86
2021/04/23 04:21:01;;;;;;;19.45;8.43;;;0.70;99.90;;;1.73;87.22;101812.88;4795916;29;20125;-87
2021/04/23 04:23:27;;;;;;;17.08;7.35;;;0.60;99.90;;;1.67;87.23;101814.75;4795852;29;20417;-89
2021/04/23 04:26:00;;;;;;;17.33;8.18;;;0.60;99.90;;;1.58;86.91;101817.22;4795164;29;20106;-86
2021/04/23 04:28:29;;;;;;;20.83;8.40;;;0.50;99.90;;;1.55;87.08;101820.53;4795176;29;20033;-87
2021/04/23 04:30:57;;;;;;;18.92;7.70;;;0.50;99.90;;;1.58;87.28;101822.72;4809880;29;20091;-88
2021/04/23 04:33:24;;;;;;;20.63;7.38;;;0.50;99.90;;;1.57;87.33;101825.78;4795710;29;20472;-90
2021/04/23 04:35:50;;;;;;;20.95;8.70;;;0.50;99.90;;;1.65;87.35;101830.75;4796575;29;20429;-86
2021/04/23 04:38:17;;;;;;;21.42;8.60;;;0.50;99.90;;;1.69;87.51;101823.59;4795333;29;20046;-86
2021/04/23 04:40:48;;;;;;;16.70;8.35;;;0.50;99.90;;;1.74;87.58;101822.75;4796918;29;20038;-84
2021/04/23 04:43:18;;;;;;;21.17;9.23;;;0.60;99.90;;;1.78;87.37;101821.97;4827959;29;20417;-84
2021/04/23 04:45:47;;;;;;;25.40;9.02;;;0.60;99.90;;;1.90;87.24;101829.97;4797208;29;20042;-84
2021/04/23 04:48:14;;;;;;;22.48;8.88;;;0.70;99.90;;;1.98;87.29;101829.47;4809302;29;20050;-84
2021/04/23 04:50:54;;;;;;;18.30;8.00;;;0.80;99.90;;;2.06;86.94;101845.44;4792900;29;20035;-83
2021/04/23 04:53:22;;;;;;;19.80;8.55;;;0.80;99.90;;;2.06;87.13;101843.53;4793289;29;20033;-84
2021/04/23 04:55:55;;;;;;;18.27;8.55;;;0.90;99.90;;;2.13;86.98;101837.75;4808780;29;20226;-87
2021/04/23 04:58:28;;;;;;;22.20;8.70;;;0.90;99.90;;;2.19;87.02;101838.56;4793987;29;20122;-82
2021/04/23 05:00:56;;;;;;;20.38;9.25;;;1.00;99.90;;;2.24;86.95;101844.13;4793967;29;20031;-84
2021/04/23 05:03:25;;;;;;;17.95;7.85;;;1.00;99.90;;;2.28;86.73;101834.19;4811503;29;20041;-86
2021/04/23 05:05:51;;;;;;;28.70;9.32;;;1.10;99.90;;;2.33;86.85;101834.19;4801660;29;20015;-83
2021/04/23 05:08:18;;;;;;;18.30;7.68;;;1.10;99.90;;;2.38;86.48;101837.78;4810923;29;20023;-82
2021/04/23 05:10:44;;;;;;;20.55;8.20;;;1.20;99.90;;;2.48;86.59;101835.03;4795287;29;20568;-85
2021/04/23 05:13:11;;;;;;;19.85;8.50;;;1.30;99.90;;;2.59;86.42;101850.47;4793107;29;20047;-84
2021/04/23 05:15:38;;;;;;;24.17;8.98;;;1.30;99.90;;;2.69;86.30;101841.38;4792728;29;20049;-82
2021/04/23 05:18:04;;;;;;;19.85;8.15;;;1.50;99.90;;;2.86;85.75;101854.88;4792598;29;20038;-84
2021/04/23 05:20:34;;;;;;;19.92;9.05;;;1.60;99.90;;;2.98;85.88;101844.38;4792317;29;20038;-83
2021/04/23 05:23:00;;;;;;;18.70;8.82;;;1.70;99.90;;;3.17;85.27;101853.72;4791940;29;20100;-85
2021/04/23 05:25:27;;;;;;;20.77;9.05;;;1.90;99.90;;;3.36;84.99;101865.00;4792352;29;20492;-82
2021/04/23 05:27:55;;;;;;;23.42;9.18;;;2.00;99.90;;;3.50;84.47;101860.53;4792722;29;20420;-84
2021/04/23 05:30:30;;;;;;;17.92;9.18;;;2.10;99.90;;;3.69;84.52;101859.59;4792248;29;20034;-85
2021/04/23 05:33:01;;;;;;;23.70;8.80;;;2.30;99.90;;;3.92;84.01;101869.16;4791558;29;20038;-84
2021/04/23 05:35:29;;;;;;;21.73;8.98;;;2.50;99.90;;;4.18;84.26;101876.22;4807773;29;20049;-85
2021/04/23 05:37:59;;;;;;;30.02;8.35;;;2.60;99.90;;;4.44;84.12;101867.75;4792116;29;20042;-84
2021/04/23 05:40:41;;;;;;;18.33;8.30;;;2.90;99.90;;;4.73;83.80;101868.63;4792663;29;20126;-85
2021/04/23 05:43:07;;;;;;;25.02;9.20;;;3.10;99.90;;;5.05;82.87;101871.66;4791025;29;20039;-85
2021/04/23 05:45:36;;;;;;;16.05;8.73;;;3.30;99.90;;;5.43;81.91;101871.81;4792342;29;20039;-85
2021/04/23 05:48:04;;;;;;;18.50;8.32;;;3.60;99.90;;;5.78;80.50;101872.22;4808929;29;20103;-84
2021/04/23 05:50:31;;;;;;;18.77;8.43;;;3.90;99.90;;;6.15;79.31;101873.44;4793433;29;20050;-85
2021/04/23 05:52:57;;;;;;;17.05;8.98;;;4.10;99.90;;;6.38;77.86;101875.31;4809487;29;20030;-88
2021/04/23 05:55:25;;;;;;;28.42;9.15;;;4.40;99.90;;;6.76;76.60;101878.88;4795013;29;20035;-85
2021/04/23 05:58:00;;;;;;;23.05;8.75;;;4.70;99.90;;;7.12;75.11;101879.94;4796587;29;20038;-89
2021/04/23 06:00:32;;;;;;;27.33;8.45;;;5.00;99.90;;;7.47;71.14;101884.00;4795807;29;20058;-87
2021/04/23 06:03:02;;;;;;;19.98;8.20;;;5.30;99.90;;;7.73;70.82;101881.53;4796799;29;20130;-87
2021/04/23 06:05:30;;;;;;;23.17;9.30;;;5.70;99.90;;;8.02;70.28;101889.53;4811074;29;20509;-84
2021/04/23 06:08:06;;;;;;;24.17;8.02;;;6.00;99.90;;;8.20;68.05;101886.63;4793906;29;20055;-86
2021/04/23 06:10:34;;;;;;;23.02;7.82;;;6.20;99.90;;;8.51;67.54;101891.53;4792221;29;20038;-84
2021/04/23 06:13:01;;;;;;;19.17;7.00;;;6.50;99.90;;;8.82;66.13;101900.81;4792645;29;20047;-85
2021/04/23 06:15:28;;;;;;;16.63;7.18;;;6.80;99.90;;;8.95;63.77;101908.28;4792737;29;20498;-85
2021/04/23 06:17:56;;;;;;;18.15;6.85;;;7.10;99.90;;;9.13;63.75;101901.66;4792333;29;20031;-86
2021/04/23 06:20:30;;;;;;;17.98;7.40;;;7.30;99.90;;;9.19;63.26;101897.59;4792746;29;20038;-84
2021/04/23 06:22:58;;;;;;;14.65;6.32;;;7.30;99.90;;;9.42;63.76;101903.97;4793174;29;20063;-86
2021/04/23 06:25:25;;;;;;;18.58;6.78;;;7.50;99.90;;;9.42;62.81;101904.78;4791598;29;20062;-85
2021/04/23 06:27:54;;;;;;;21.90;6.50;;;7.60;99.90;;;9.50;61.56;101914.38;4810122;29;20031;-83
2021/04/23 06:30:28;;;;;;;20.73;6.63;;;7.60;99.90;;;9.49;62.07;101910.75;4793843;29;20064;-85
2021/04/23 06:32:57;;;;;;;19.00;6.03;;;7.70;99.90;;;9.78;61.89;101920.56;4809073;29;20046;-83
2021/04/23 06:35:30;;;;;;;15.48;5.90;;;7.90;99.90;;;9.94;60.22;101919.81;4794084;29;20136;-84
2021/04/23 06:37:58;;;;;;;19.15;6.50;;;8.00;99.90;;;10.07;59.64;101921.66;4793757;29;20038;-83
2021/04/23 06:40:24;;;;;;;16.98;7.80;;;8.10;99.90;;;10.07;58.49;101926.41;4808689;29;20035;-82
2021/04/23 06:42:51;;;;;;;14.52;5.50;;;8.20;99.90;;;10.17;58.58;101920.56;4793814;29;20034;-84
2021/04/23 06:45:22;;;;;;;18.45;5.93;;;8.30;99.90;;;10.28;57.74;101932.22;4808057;29;20512;-86
2021/04/23 06:47:49;;;;;;;18.17;5.80;;;8.40;99.90;;;10.49;57.02;101916.50;4807158;29;20468;-88
2021/04/23 06:50:22;;;;;;;18.15;5.75;;;8.60;99.90;;;10.47;56.63;101916.81;4793490;29;20034;-85
2021/04/23 06:52:49;;;;;;;18.83;6.85;;;8.70;99.90;;;10.75;56.41;101913.72;4808512;29;20123;-84
2021/04/23 06:55:18;;;;;;;16.33;6.38;;;9.00;99.90;;;10.79;55.59;101911.94;4795898;29;20073;-85
2021/04/23 06:57:45;;;;;;;20.35;6.63;;;9.00;99.90;;;10.98;54.74;101910.41;4795570;29;20398;-86
2021/04/23 07:00:24;;;;;;;14.85;5.38;;;9.10;99.90;;;11.40;53.81;101922.66;4795155;29;20552;-83
2021/04/23 07:02:50;;;;;;;10.57;5.28;;;9.40;99.90;;;11.59;53.66;101922.31;4794755;29;20095;-85
2021/04/23 07:05:17;;;;;;;13.63;5.95;;;9.60;99.90;;;11.39;53.24;101906.22;4795074;29;20450;-86
2021/04/23 07:07:43;;;;;;;15.20;5.10;;;9.60;99.90;;;11.48;53.81;101921.84;4793932;29;20042;-85
2021/04/23 07:10:17;;;;;;;21.38;5.35;;;9.80;99.90;;;11.61;53.49;101923.63;4794290;29;20031;-87
2021/04/23 07:12:43;;;;;;;17.67;4.95;;;9.80;99.90;;;11.69;53.17;101924.72;4796624;29;20448;-86
2021/04/23 07:15:15;;;;;;;11.05;4.90;;;9.90;99.90;;;11.55;52.61;101927.75;4831297;24;20054;-82
2021/04/23 07:21:41;;;;;;;14.98;3.33;;;9.60;99.90;;;11.17;52.35;101934.41;4839597;29;20146;-84
2021/04/23 07:24:08;;;;;;;11.20;3.72;;;9.50;99.90;;;11.10;54.01;101918.13;4831569;29;20035;-84
2021/04/23 07:26:34;;;;;;;11.68;4.13;;;9.50;99.90;;;11.56;53.20;101923.78;4818649;29;20034;-82
2021/04/23 07:28:59;;;;;;;10.57;3.22;;;9.70;99.90;;;11.37;52.79;101923.34;4818581;29;20039;-81
2021/04/23 07:31:25;;;;;;;10.90;4.00;;;9.60;99.90;;;10.67;54.16;101920.94;4821423;29;20030;-83
2021/04/23 07:33:51;;;;;;;11.93;4.28;;;9.10;99.90;;;10.51;54.74;101934.56;4822266;29;20031;-81
2021/04/23 07:36:17;;;;;;;17.08;5.25;;;8.90;99.90;;;10.93;54.98;101926.53;4807415;29;20038;-83
2021/04/23 07:38:43;;;;;;;11.90;5.00;;;9.20;99.90;;;12.26;51.95;101938.34;4803136;29;20035;-84
2021/04/23 07:41:10;;;;;;;12.10;5.05;;;10.00;99.90;;;13.13;49.21;101940.19;4801473;29;20069;-82
2021/04/23 07:43:36;;;;;;;10.27;4.70;;;10.80;99.90;;;12.56;48.98;101935.16;4798685;29;20031;-84
2021/04/23 07:46:02;;;;;;;13.05;4.70;;;10.70;99.80;;;11.82;51.36;101931.28;4798715;29;20095;-83
2021/04/23 07:48:29;;;;;;;13.52;4.85;;;10.30;99.90;;;11.38;52.03;101933.38;4797670;29;20098;-84
2021/04/23 07:50:56;;;;;;;14.02;5.18;;;9.90;99.90;;;11.81;51.62;101930.50;4814801;29;20030;-84
2021/04/23 07:53:22;;;;;;;13.02;5.13;;;10.00;99.90;;;12.62;50.00;101935.75;4799935;29;20050;-82
2021/04/23 07:55:49;;;;;;;14.43;4.57;;;10.60;99.90;;;13.81;46.44;101934.97;4799779;29;20083;-83
2021/04/23 07:58:15;;;;;;;10.38;3.90;;;11.50;96.70;;;14.68;43.38;101939.88;4798612;29;20061;-85
2021/04/23 08:00:42;;;;;;;7.93;2.72;;;12.40;91.00;;;15.34;40.48;101942.22;4799186;29;20038;-83
2021/04/23 08:03:07;;;;;;;6.55;3.15;;;12.90;79.80;;;14.15;40.96;101940.97;4816572;29;20308;-85
2021/04/23 08:05:35;;;;;;;7.47;3.20;;;12.60;74.00;;;13.63;43.07;101938.00;4799081;29;20046;-82
2021/04/23 08:08:03;;;;;;;5.93;2.50;;;12.20;76.60;;;13.12;42.22;101933.75;4814639;29;20062;-82
2021/04/23 08:10:31;;;;;;;10.07;3.10;;;11.50;75.30;;;12.53;44.44;101935.84;4797545;29;20043;-83
2021/04/23 08:12:58;;;;;;;8.05;3.42;;;11.00;79.10;;;12.04;46.87;101934.63;4819582;29;20068;-82
2021/04/23 08:15:26;;;;;;;11.80;3.15;;;10.50;84.40;;;11.73;48.06;101936.94;4806574;29;20031;-82
2021/04/23 08:17:58;;;;;;;12.77;4.65;;;10.20;88.50;;;11.58;48.16;101943.88;4796479;29;20047;-82
2021/04/23 08:20:27;;;;;;;8.02;3.80;;;10.00;90.20;;;11.77;48.00;101935.09;4797357;29;20041;-80
2021/04/23 08:22:53;;;;;;;11.85;3.92;;;10.00;90.90;;;11.74;48.93;101946.97;4812819;29;20027;-82
2021/04/23 08:25:21;;;;;;;7.78;4.53;;;10.00;92.80;;;11.79;48.46;101941.19;4797723;29;20035;-82
2021/04/23 08:27:49;;;;;;;10.80;6.95;;;10.00;92.40;;;12.03;47.48;101943.41;4796027;29;20038;-82
2021/04/23 08:30:21;;;;;;;12.95;6.40;;;10.20;90.40;;;12.46;46.20;101948.72;4795999;29;20079;-83
2021/04/23 08:32:47;;;;;;;8.98;4.35;;;10.70;88.40;;;14.19;42.23;101950.31;4811081;29;20060;-84
2021/04/23 08:35:14;;;;;;;9.27;4.07;;;11.80;82.20;;;15.40;39.79;101940.78;4810818;29;20037;-83
2021/04/23 08:37:42;;;;;;;5.97;2.85;;;12.70;76.30;;;16.01;38.19;101937.59;4795611;29;20050;-82
2021/04/23 08:40:14;;;;;;;6.60;3.03;;;13.50;71.40;;;16.22;38.45;101938.94;4811403;29;20043;-83
2021/04/23 08:42:41;;;;;;;7.97;3.10;;;14.10;69.70;;;16.33;37.18;101942.84;4795755;29;20047;-83
2021/04/23 08:45:15;;;;;;;6.32;2.90;;;14.20;66.20;;;16.31;37.79;101935.97;4795494;29;20517;-83
2021/04/23 08:47:43;;;;;;;6.32;2.55;;;14.30;66.60;;;15.91;38.16;101938.97;4795544;29;20046;-83
2021/04/23 08:50:11;;;;;;;8.48;3.30;;;14.00;66.60;;;15.21;39.81;101940.66;4812159;29;20031;-81
2021/04/23 08:52:44;;;;;;;10.60;3.72;;;13.40;68.00;;;13.66;41.88;101937.28;4812565;29;20027;-84
2021/04/23 08:55:17;;;;;;;6.07;3.00;;;12.30;69.50;;;12.97;43.78;101942.75;4811394;29;20039;-84
2021/04/23 08:57:43;;;;;;;8.60;3.42;;;11.50;73.90;;;12.61;45.16;101945.34;4795005;29;20042;-84
2021/04/23 09:00:12;;;;;;;11.55;3.70;;;11.00;76.70;;;12.22;45.48;101941.00;4811726;29;20038;-84
2021/04/23 09:02:39;;;;;;;10.80;3.63;;;10.70;77.60;;;12.79;45.44;101934.81;4795163;29;20479;-86
2021/04/23 09:05:06;;;;;;;5.03;3.33;;;11.00;79.40;;;14.39;43.48;101931.72;4795948;29;20408;-83
2021/04/23 09:07:32;;;;;;;8.82;4.10;;;12.00;79.40;;;15.54;39.59;101935.56;4812112;29;20031;-81
2021/04/23 09:10:14;;;;;;;9.38;4.10;;;13.00;73.10;;;15.19;39.08;101929.72;4811798;29;20087;-83
2021/04/23 09:12:42;;;;;;;7.78;3.95;;;12.90;70.10;;;14.46;40.60;101931.13;4811809;29;20056;-81
2021/04/23 09:15:26;;;;;;;7.10;3.83;;;12.80;69.60;;;14.81;41.79;101935.03;4810710;29;20035;-82
2021/04/23 09:18:18;;;;;;;8.95;3.50;;;12.80;73.10;;;15.04;41.10;101922.06;4796291;29;20068;-83
2021/04/23 09:21:02;;;;;;;7.35;3.50;;;13.00;71.70;;;15.08;41.25;101927.81;4796230;29;20039;-82
2021/04/23 09:23:28;;;;;;;9.25;3.80;;;13.20;71.80;;;15.11;40.26;101927.09;4796690;29;20095;-82
2021/04/23 09:26:00;;;;;;;13.32;4.57;;;13.20;70.10;;;15.25;39.28;101924.69;4796436;29;20058;-83
2021/04/23 09:28:41;;;;;;;10.90;4.30;;;13.50;68.30;;;16.12;38.49;101925.41;4797601;29;20474;-84
2021/04/23 09:31:30;;;;;;;9.63;4.15;;;13.90;68.00;;;16.04;37.62;101926.44;4811052;29;20027;-83
2021/04/23 09:33:59;;;;;;;8.55;4.28;;;14.00;65.10;;;16.25;38.12;101931.75;4796530;29;20049;-83
2021/04/23 09:36:36;;;;;;;9.00;3.33;;;14.00;65.70;;;15.98;37.49;101927.88;4797026;29;20095;-82
2021/04/23 09:39:18;;;;;;;10.40;3.35;;;14.10;64.00;;;16.64;38.31;101921.41;4796389;29;20037;-84
2021/04/23 09:42:10;;;;;;;8.88;4.00;;;14.40;66.50;;;16.91;36.98;101930.88;4812024;29;20035;-83
2021/04/23 09:44:49;;;;;;;8.23;3.90;;;14.70;65.10;;;17.20;35.31;101925.47;4798776;29;20046;-82
2021/04/23 09:47:26;;;;;;;8.52;3.40;;;14.90;61.20;;;16.73;36.72;101930.47;4813891;29;20039;-84
2021/04/23 09:49:57;;;;;;;8.73;3.67;;;14.80;63.00;;;16.81;36.25;101921.00;4810083;29;20037;-83
2021/04/23 09:52:26;;;;;;;12.18;4.10;;;14.70;62.10;;;16.94;36.59;101922.50;4811591;29;20045;-87
2021/04/23 09:54:58;;;;;;;10.23;4.43;;;14.70;62.70;;;17.12;35.67;101923.69;4793931;29;20039;-82
2021/04/23 09:57:34;;;;;;;7.88;3.42;;;15.20;60.10;;;18.47;34.53;101926.09;4794243;29;20039;-85
2021/04/23 10:00:10;;;;;;;13.70;4.63;;;15.80;60.50;;;18.51;35.04;101915.69;4810478;29;20039;-83
2021/04/23 10:02:36;;;;;;;10.23;4.55;;;16.10;59.90;;;17.78;34.09;101919.75;4810895;29;20045;-84
2021/04/23 10:05:05;;;;;;;9.48;3.45;;;15.80;58.20;;;17.01;35.73;101913.38;4813001;29;20035;-84
2021/04/23 10:07:35;;;;;;;7.63;4.18;;;15.30;59.50;;;17.02;35.69;101920.63;4795824;29;20125;-82
2021/04/23 10:10:11;;;;;;;8.90;3.75;;;15.10;59.60;;;17.58;35.27;101918.16;4794238;29;20098;-80
2021/04/23 10:12:45;;;;;;;6.25;2.78;;;15.40;59.80;;;17.78;34.15;101917.75;4811198;29;20354;-83
2021/04/23 10:15:17;;;;;;;7.43;3.30;;;15.40;58.40;;;17.48;34.15;101918.72;4795000;29;20388;-83
2021/04/23 10:17:51;;;;;;;4.65;2.88;;;15.50;58.10;;;17.32;34.52;101930.94;4812837;29;20095;-83
2021/04/23 10:20:32;;;;;;;8.33;3.93;;;15.40;58.00;;;17.36;35.08;101917.72;4796197;29;20610;-83
2021/04/23 10:23:02;;;;;;;8.43;3.00;;;15.30;59.40;;;17.64;33.61;101925.13;4812695;29;20046;-83
2021/04/23 10:25:30;;;;;;;13.35;4.00;;;15.40;58.30;;;17.87;34.41;101918.28;4813924;29;20118;-83
2021/04/23 10:28:00;;;;;;;10.30;3.53;;;15.70;58.20;;;17.77;35.23;101915.28;4799005;29;20034;-86
2021/04/23 10:30:33;;;;;;;6.85;3.35;;;15.80;58.50;;;18.58;32.76;101907.31;4811630;29;20086;-81
2021/04/23 10:33:03;;;;;;;9.80;3.85;;;16.10;56.60;;;18.40;32.35;101921.16;4806587;29;20569;-81